sensor_id;sensor_type;location;lat;lon;timestamp;temperature;humidity
17437;DHT22;8836;52.272;5.134;2022-07-21T00:01:52;31.60;97.00
17437;DHT22;8836;52.272;5.134;2022-07-21T00:04:20;31.60;97.00
17437;DHT22;8836;52.272;5.134;2022-07-21T00:06:48;31.60;97.20
17437;DHT22;8836;52.272;5.134;2022-07-21T00:09:15;31.60;97.00
17437;DHT22;8836;52.272;5.134;2022-07-21T00:11:42;31.60;97.00
17437;DHT22;8836;52.272;5.134;2022-07-21T00:14:10;31.60;97.00
17437;DHT22;8836;52.272;5.134;2022-07-21T00:16:40;31.60;97.00
17437;DHT22;8836;52.272;5.134;2022-07-21T00:19:09;31.60;97.00
17437;DHT22;8836;52.272;5.134;2022-07-21T00:21:38;31.60;97.00
17437;DHT22;8836;52.272;5.134;2022-07-21T00:24:05;31.60;97.00
17437;DHT22;8836;52.272;5.134;2022-07-21T00:26:33;31.60;97.10
17437;DHT22;8836;52.272;5.134;2022-07-21T00:29:00;31.60;97.10
17437;DHT22;8836;52.272;5.134;2022-07-21T00:31:27;31.60;97.10
17437;DHT22;8836;52.272;5.134;2022-07-21T00:33:55;31.60;97.10
17437;DHT22;8836;52.272;5.134;2022-07-21T00:36:22;31.60;97.10
17437;DHT22;8836;52.272;5.134;2022-07-21T00:38:49;31.60;97.10
17437;DHT22;8836;52.272;5.134;2022-07-21T00:41:16;31.60;97.10
17437;DHT22;8836;52.272;5.134;2022-07-21T00:43:43;31.60;97.20
17437;DHT22;8836;52.272;5.134;2022-07-21T00:46:10;31.60;97.10
17437;DHT22;8836;52.272;5.134;2022-07-21T00:48:37;31.60;97.10
17437;DHT22;8836;52.272;5.134;2022-07-21T00:51:06;31.60;97.10
17437;DHT22;8836;52.272;5.134;2022-07-21T00:53:33;31.60;97.20
17437;DHT22;8836;52.272;5.134;2022-07-21T00:56:00;31.60;97.20
17437;DHT22;8836;52.272;5.134;2022-07-21T00:58:28;31.60;97.50
17437;DHT22;8836;52.272;5.134;2022-07-21T01:00:55;31.60;97.20
17437;DHT22;8836;52.272;5.134;2022-07-21T01:03:22;31.60;97.20
17437;DHT22;8836;52.272;5.134;2022-07-21T01:05:49;31.60;97.20
17437;DHT22;8836;52.272;5.134;2022-07-21T01:08:18;31.50;97.20
17437;DHT22;8836;52.272;5.134;2022-07-21T01:10:45;31.60;97.20
17437;DHT22;8836;52.272;5.134;2022-07-21T01:13:12;31.50;97.20
17437;DHT22;8836;52.272;5.134;2022-07-21T01:15:39;31.60;97.20
17437;DHT22;8836;52.272;5.134;2022-07-21T01:18:07;31.60;97.20
17437;DHT22;8836;52.272;5.134;2022-07-21T01:20:36;31.60;97.20
17437;DHT22;8836;52.272;5.134;2022-07-21T01:23:08;31.60;97.20
17437;DHT22;8836;52.272;5.134;2022-07-21T01:25:35;31.60;97.30
17437;DHT22;8836;52.272;5.134;2022-07-21T01:28:02;31.60;97.30
17437;DHT22;8836;52.272;5.134;2022-07-21T01:30:29;31.60;97.20
17437;DHT22;8836;52.272;5.134;2022-07-21T01:32:56;31.60;97.30
17437;DHT22;8836;52.272;5.134;2022-07-21T01:35:23;31.60;97.30
17437;DHT22;8836;52.272;5.134;2022-07-21T01:37:50;31.60;97.60
17437;DHT22;8836;52.272;5.134;2022-07-21T01:40:18;31.50;97.30
17437;DHT22;8836;52.272;5.134;2022-07-21T01:43:04;31.60;97.30
17437;DHT22;8836;52.272;5.134;2022-07-21T01:45:31;31.50;97.30
17437;DHT22;8836;52.272;5.134;2022-07-21T01:47:58;31.50;97.30
17437;DHT22;8836;52.272;5.134;2022-07-21T01:50:25;31.60;97.30
17437;DHT22;8836;52.272;5.134;2022-07-21T01:52:54;31.60;97.30
17437;DHT22;8836;52.272;5.134;2022-07-21T01:55:24;31.60;97.30
17437;DHT22;8836;52.272;5.134;2022-07-21T01:57:53;31.60;97.30
17437;DHT22;8836;52.272;5.134;2022-07-21T02:00:20;31.50;97.30
17437;DHT22;8836;52.272;5.134;2022-07-21T02:02:46;31.60;97.30
17437;DHT22;8836;52.272;5.134;2022-07-21T02:05:13;31.50;97.30
17437;DHT22;8836;52.272;5.134;2022-07-21T02:07:41;31.50;97.30
17437;DHT22;8836;52.272;5.134;2022-07-21T02:10:08;31.50;97.30
17437;DHT22;8836;52.272;5.134;2022-07-21T02:12:37;31.50;97.30
17437;DHT22;8836;52.272;5.134;2022-07-21T02:15:05;31.50;97.30
17437;DHT22;8836;52.272;5.134;2022-07-21T02:17:33;31.50;97.30
17437;DHT22;8836;52.272;5.134;2022-07-21T02:20:00;31.50;97.30
17437;DHT22;8836;52.272;5.134;2022-07-21T02:22:27;31.60;97.30
17437;DHT22;8836;52.272;5.134;2022-07-21T02:24:54;31.60;97.30
17437;DHT22;8836;52.272;5.134;2022-07-21T02:27:20;31.50;97.30
17437;DHT22;8836;52.272;5.134;2022-07-21T02:29:49;31.50;97.30
17437;DHT22;8836;52.272;5.134;2022-07-21T02:32:16;31.50;97.30
17437;DHT22;8836;52.272;5.134;2022-07-21T02:34:43;31.50;97.30
17437;DHT22;8836;52.272;5.134;2022-07-21T02:37:10;31.50;97.30
17437;DHT22;8836;52.272;5.134;2022-07-21T02:39:36;31.50;97.30
17437;DHT22;8836;52.272;5.134;2022-07-21T02:42:04;31.50;97.60
17437;DHT22;8836;52.272;5.134;2022-07-21T02:44:31;31.50;97.30
17437;DHT22;8836;52.272;5.134;2022-07-21T02:46:59;31.50;97.30
17437;DHT22;8836;52.272;5.134;2022-07-21T02:49:26;31.50;97.30
17437;DHT22;8836;52.272;5.134;2022-07-21T02:51:53;31.50;97.30
17437;DHT22;8836;52.272;5.134;2022-07-21T02:54:20;31.50;97.40
17437;DHT22;8836;52.272;5.134;2022-07-21T02:56:46;31.50;97.30
17437;DHT22;8836;52.272;5.134;2022-07-21T02:59:13;31.50;97.70
17437;DHT22;8836;52.272;5.134;2022-07-21T03:01:40;31.50;97.40
17437;DHT22;8836;52.272;5.134;2022-07-21T03:04:09;31.50;97.40
17437;DHT22;8836;52.272;5.134;2022-07-21T03:06:37;31.50;97.40
17437;DHT22;8836;52.272;5.134;2022-07-21T03:09:04;31.50;97.40
17437;DHT22;8836;52.272;5.134;2022-07-21T03:11:31;31.50;97.40
17437;DHT22;8836;52.272;5.134;2022-07-21T03:13:58;31.80;97.50
17437;DHT22;8836;52.272;5.134;2022-07-21T03:16:25;31.50;97.40
17437;DHT22;8836;52.272;5.134;2022-07-21T03:18:52;31.50;97.40
17437;DHT22;8836;52.272;5.134;2022-07-21T03:21:21;31.50;97.40
17437;DHT22;8836;52.272;5.134;2022-07-21T03:23:47;31.50;97.40
17437;DHT22;8836;52.272;5.134;2022-07-21T03:26:15;31.50;97.40
17437;DHT22;8836;52.272;5.134;2022-07-21T03:28:43;31.50;97.40
17437;DHT22;8836;52.272;5.134;2022-07-21T03:31:10;31.50;97.40
17437;DHT22;8836;52.272;5.134;2022-07-21T03:33:37;31.50;97.50
17437;DHT22;8836;52.272;5.134;2022-07-21T03:36:05;31.50;97.40
17437;DHT22;8836;52.272;5.134;2022-07-21T03:38:35;31.50;97.40
17437;DHT22;8836;52.272;5.134;2022-07-21T03:41:02;31.50;97.50
17437;DHT22;8836;52.272;5.134;2022-07-21T03:43:29;31.50;97.50
17437;DHT22;8836;52.272;5.134;2022-07-21T03:45:55;31.50;97.50
17437;DHT22;8836;52.272;5.134;2022-07-21T03:48:22;31.50;97.50
17437;DHT22;8836;52.272;5.134;2022-07-21T03:50:49;31.50;97.50
17437;DHT22;8836;52.272;5.134;2022-07-21T03:53:16;32.00;97.60
17437;DHT22;8836;52.272;5.134;2022-07-21T03:55:44;31.50;97.40
17437;DHT22;8836;52.272;5.134;2022-07-21T03:58:12;31.50;97.40
17437;DHT22;8836;52.272;5.134;2022-07-21T04:00:41;31.40;97.40
17437;DHT22;8836;52.272;5.134;2022-07-21T04:03:10;31.40;97.40
17437;DHT22;8836;52.272;5.134;2022-07-21T04:05:38;31.40;97.30
17437;DHT22;8836;52.272;5.134;2022-07-21T04:08:08;31.40;97.30
17437;DHT22;8836;52.272;5.134;2022-07-21T04:10:37;31.40;97.30
17437;DHT22;8836;52.272;5.134;2022-07-21T04:13:08;31.40;97.30
17437;DHT22;8836;52.272;5.134;2022-07-21T04:15:36;31.40;97.30
17437;DHT22;8836;52.272;5.134;2022-07-21T04:18:05;31.40;97.30
17437;DHT22;8836;52.272;5.134;2022-07-21T04:20:34;31.40;97.30
17437;DHT22;8836;52.272;5.134;2022-07-21T04:23:01;31.40;97.30
17437;DHT22;8836;52.272;5.134;2022-07-21T04:25:30;31.40;97.20
17437;DHT22;8836;52.272;5.134;2022-07-21T04:27:57;31.40;97.20
17437;DHT22;8836;52.272;5.134;2022-07-21T04:30:26;31.40;97.20
17437;DHT22;8836;52.272;5.134;2022-07-21T04:32:54;31.40;97.10
17437;DHT22;8836;52.272;5.134;2022-07-21T04:35:21;31.40;97.20
17437;DHT22;8836;52.272;5.134;2022-07-21T04:37:48;31.40;97.10
17437;DHT22;8836;52.272;5.134;2022-07-21T04:40:16;31.40;97.10
17437;DHT22;8836;52.272;5.134;2022-07-21T04:42:44;31.40;97.10
17437;DHT22;8836;52.272;5.134;2022-07-21T04:45:14;31.40;97.50
17437;DHT22;8836;52.272;5.134;2022-07-21T04:47:45;31.40;97.10
17437;DHT22;8836;52.272;5.134;2022-07-21T04:50:15;31.40;97.10
17437;DHT22;8836;52.272;5.134;2022-07-21T04:52:43;31.40;97.10
17437;DHT22;8836;52.272;5.134;2022-07-21T04:55:12;31.40;97.10
17437;DHT22;8836;52.272;5.134;2022-07-21T04:57:41;31.40;97.10
17437;DHT22;8836;52.272;5.134;2022-07-21T05:00:12;31.40;97.10
17437;DHT22;8836;52.272;5.134;2022-07-21T05:02:41;31.40;97.10
17437;DHT22;8836;52.272;5.134;2022-07-21T05:05:10;31.40;97.10
17437;DHT22;8836;52.272;5.134;2022-07-21T05:07:38;31.40;97.00
17437;DHT22;8836;52.272;5.134;2022-07-21T05:10:07;31.40;97.00
17437;DHT22;8836;52.272;5.134;2022-07-21T05:12:36;31.40;97.00
17437;DHT22;8836;52.272;5.134;2022-07-21T05:15:06;31.40;97.00
17437;DHT22;8836;52.272;5.134;2022-07-21T05:17:35;31.40;97.10
17437;DHT22;8836;52.272;5.134;2022-07-21T05:20:02;31.40;97.10
17437;DHT22;8836;52.272;5.134;2022-07-21T05:22:31;31.40;97.10
17437;DHT22;8836;52.272;5.134;2022-07-21T05:24:58;31.40;97.10
17437;DHT22;8836;52.272;5.134;2022-07-21T05:27:25;31.30;97.10
17437;DHT22;8836;52.272;5.134;2022-07-21T05:29:52;31.30;97.10
17437;DHT22;8836;52.272;5.134;2022-07-21T05:32:20;31.30;97.10
17437;DHT22;8836;52.272;5.134;2022-07-21T05:34:47;31.30;97.20
17437;DHT22;8836;52.272;5.134;2022-07-21T05:37:14;31.30;97.20
17437;DHT22;8836;52.272;5.134;2022-07-21T05:39:42;31.40;97.20
17437;DHT22;8836;52.272;5.134;2022-07-21T05:42:09;31.40;97.20
17437;DHT22;8836;52.272;5.134;2022-07-21T05:44:36;31.30;97.20
17437;DHT22;8836;52.272;5.134;2022-07-21T05:47:03;31.30;97.20
17437;DHT22;8836;52.272;5.134;2022-07-21T05:49:30;31.30;97.20
17437;DHT22;8836;52.272;5.134;2022-07-21T05:51:57;31.30;97.20
17437;DHT22;8836;52.272;5.134;2022-07-21T05:54:23;31.30;97.20
17437;DHT22;8836;52.272;5.134;2022-07-21T05:56:52;31.30;97.20
17437;DHT22;8836;52.272;5.134;2022-07-21T05:59:19;31.30;97.20
17437;DHT22;8836;52.272;5.134;2022-07-21T06:01:45;31.30;97.20
17437;DHT22;8836;52.272;5.134;2022-07-21T06:04:12;31.30;97.20
17437;DHT22;8836;52.272;5.134;2022-07-21T06:06:39;31.30;97.20
17437;DHT22;8836;52.272;5.134;2022-07-21T06:09:06;31.20;97.20
17437;DHT22;8836;52.272;5.134;2022-07-21T06:11:33;31.30;97.20
17437;DHT22;8836;52.272;5.134;2022-07-21T06:14:01;31.30;97.20
17437;DHT22;8836;52.272;5.134;2022-07-21T06:16:29;31.30;97.20
17437;DHT22;8836;52.272;5.134;2022-07-21T06:18:56;31.30;97.20
17437;DHT22;8836;52.272;5.134;2022-07-21T06:21:23;31.30;97.60
17437;DHT22;8836;52.272;5.134;2022-07-21T06:23:50;31.30;97.30
17437;DHT22;8836;52.272;5.134;2022-07-21T06:26:18;31.30;97.30
17437;DHT22;8836;52.272;5.134;2022-07-21T06:28:45;31.30;97.30
17437;DHT22;8836;52.272;5.134;2022-07-21T06:31:14;31.30;97.30
17437;DHT22;8836;52.272;5.134;2022-07-21T06:33:41;31.20;97.30
17437;DHT22;8836;52.272;5.134;2022-07-21T06:36:08;31.20;97.30
17437;DHT22;8836;52.272;5.134;2022-07-21T06:38:36;31.20;97.30
17437;DHT22;8836;52.272;5.134;2022-07-21T06:41:03;31.20;97.40
17437;DHT22;8836;52.272;5.134;2022-07-21T06:43:32;31.20;97.40
17437;DHT22;8836;52.272;5.134;2022-07-21T06:45:59;31.20;97.40
17437;DHT22;8836;52.272;5.134;2022-07-21T06:48:27;31.20;97.40
17437;DHT22;8836;52.272;5.134;2022-07-21T06:50:55;31.20;97.40
17437;DHT22;8836;52.272;5.134;2022-07-21T06:53:23;31.20;97.40
17437;DHT22;8836;52.272;5.134;2022-07-21T06:55:51;31.20;97.30
17437;DHT22;8836;52.272;5.134;2022-07-21T06:58:21;31.20;97.30
17437;DHT22;8836;52.272;5.134;2022-07-21T07:00:51;31.20;97.30
17437;DHT22;8836;52.272;5.134;2022-07-21T07:03:19;31.20;97.30
17437;DHT22;8836;52.272;5.134;2022-07-21T07:05:48;31.20;97.30
17437;DHT22;8836;52.272;5.134;2022-07-21T07:08:15;31.20;97.30
17437;DHT22;8836;52.272;5.134;2022-07-21T07:10:44;31.20;97.30
17437;DHT22;8836;52.272;5.134;2022-07-21T07:13:13;31.20;97.30
17437;DHT22;8836;52.272;5.134;2022-07-21T07:15:40;31.20;97.30
17437;DHT22;8836;52.272;5.134;2022-07-21T07:18:08;31.20;97.30
17437;DHT22;8836;52.272;5.134;2022-07-21T07:20:35;31.20;97.30
17437;DHT22;8836;52.272;5.134;2022-07-21T07:23:03;31.20;97.30
17437;DHT22;8836;52.272;5.134;2022-07-21T07:25:30;31.20;97.30
17437;DHT22;8836;52.272;5.134;2022-07-21T07:27:57;31.20;97.40
17437;DHT22;8836;52.272;5.134;2022-07-21T07:30:24;31.10;97.30
17437;DHT22;8836;52.272;5.134;2022-07-21T07:32:51;31.10;97.40
17437;DHT22;8836;52.272;5.134;2022-07-21T07:35:18;31.10;97.40
17437;DHT22;8836;52.272;5.134;2022-07-21T07:37:47;31.10;97.40
17437;DHT22;8836;52.272;5.134;2022-07-21T07:40:17;31.10;97.50
17437;DHT22;8836;52.272;5.134;2022-07-21T07:42:46;31.10;97.50
17437;DHT22;8836;52.272;5.134;2022-07-21T07:45:13;31.00;97.50
17437;DHT22;8836;52.272;5.134;2022-07-21T07:47:41;31.00;97.50
17437;DHT22;8836;52.272;5.134;2022-07-21T07:50:11;31.00;97.60
17437;DHT22;8836;52.272;5.134;2022-07-21T07:52:41;31.00;97.60
17437;DHT22;8836;52.272;5.134;2022-07-21T07:55:10;31.00;97.50
17437;DHT22;8836;52.272;5.134;2022-07-21T07:57:40;31.00;97.60
17437;DHT22;8836;52.272;5.134;2022-07-21T08:00:10;31.00;97.60
17437;DHT22;8836;52.272;5.134;2022-07-21T08:02:39;31.00;97.60
17437;DHT22;8836;52.272;5.134;2022-07-21T08:05:06;31.00;97.60
17437;DHT22;8836;52.272;5.134;2022-07-21T08:07:35;31.00;97.70
17437;DHT22;8836;52.272;5.134;2022-07-21T08:10:04;30.90;97.60
17437;DHT22;8836;52.272;5.134;2022-07-21T08:12:31;31.00;97.70
17437;DHT22;8836;52.272;5.134;2022-07-21T08:14:59;30.90;97.60
17437;DHT22;8836;52.272;5.134;2022-07-21T08:17:26;30.90;97.60
17437;DHT22;8836;52.272;5.134;2022-07-21T08:19:53;30.90;97.60
17437;DHT22;8836;52.272;5.134;2022-07-21T08:22:20;30.90;97.60
17437;DHT22;8836;52.272;5.134;2022-07-21T08:24:47;30.90;97.60
17437;DHT22;8836;52.272;5.134;2022-07-21T08:27:14;30.90;97.60
17437;DHT22;8836;52.272;5.134;2022-07-21T08:29:41;30.90;97.60
17437;DHT22;8836;52.272;5.134;2022-07-21T08:32:09;30.90;97.60
17437;DHT22;8836;52.272;5.134;2022-07-21T08:34:36;30.90;97.70
17437;DHT22;8836;52.272;5.134;2022-07-21T08:37:03;30.90;97.70
17437;DHT22;8836;52.272;5.134;2022-07-21T08:39:30;30.90;97.80
17437;DHT22;8836;52.272;5.134;2022-07-21T08:41:57;30.80;97.80
17437;DHT22;8836;52.272;5.134;2022-07-21T08:44:26;30.80;97.80
17437;DHT22;8836;52.272;5.134;2022-07-21T08:46:53;30.80;97.90
17437;DHT22;8836;52.272;5.134;2022-07-21T08:49:22;30.80;98.00
17437;DHT22;8836;52.272;5.134;2022-07-21T08:51:49;30.80;98.10
17437;DHT22;8836;52.272;5.134;2022-07-21T08:54:18;30.80;98.10
17437;DHT22;8836;52.272;5.134;2022-07-21T08:56:47;30.70;98.10
17437;DHT22;8836;52.272;5.134;2022-07-21T08:59:14;30.70;98.20
17437;DHT22;8836;52.272;5.134;2022-07-21T09:01:41;30.60;98.20
17437;DHT22;8836;52.272;5.134;2022-07-21T09:04:23;30.60;98.30
17437;DHT22;8836;52.272;5.134;2022-07-21T09:06:56;30.60;98.30
17437;DHT22;8836;52.272;5.134;2022-07-21T09:09:25;30.60;98.50
17437;DHT22;8836;52.272;5.134;2022-07-21T09:11:54;30.40;98.60
17437;DHT22;8836;52.272;5.134;2022-07-21T09:14:25;30.40;98.60
17437;DHT22;8836;52.272;5.134;2022-07-21T09:16:56;30.40;98.70
17437;DHT22;8836;52.272;5.134;2022-07-21T09:19:27;30.40;98.80
17437;DHT22;8836;52.272;5.134;2022-07-21T09:22:00;30.40;98.80
17437;DHT22;8836;52.272;5.134;2022-07-21T09:24:30;30.40;98.90
17437;DHT22;8836;52.272;5.134;2022-07-21T09:27:06;30.40;98.90
17437;DHT22;8836;52.272;5.134;2022-07-21T09:29:42;30.40;98.90
17437;DHT22;8836;52.272;5.134;2022-07-21T09:32:22;30.30;98.90
17437;DHT22;8836;52.272;5.134;2022-07-21T09:34:54;30.40;98.90
17437;DHT22;8836;52.272;5.134;2022-07-21T09:37:26;30.20;98.90
17437;DHT22;8836;52.272;5.134;2022-07-21T09:39:55;30.30;98.90
17437;DHT22;8836;52.272;5.134;2022-07-21T09:42:25;30.20;98.80
17437;DHT22;8836;52.272;5.134;2022-07-21T09:44:56;30.20;98.80
17437;DHT22;8836;52.272;5.134;2022-07-21T09:47:26;30.20;98.80
17437;DHT22;8836;52.272;5.134;2022-07-21T09:49:57;30.20;98.80
17437;DHT22;8836;52.272;5.134;2022-07-21T09:52:27;30.20;98.80
17437;DHT22;8836;52.272;5.134;2022-07-21T09:54:57;30.20;98.80
17437;DHT22;8836;52.272;5.134;2022-07-21T09:57:26;30.00;99.10
17437;DHT22;8836;52.272;5.134;2022-07-21T09:59:54;29.90;99.10
17437;DHT22;8836;52.272;5.134;2022-07-21T10:02:23;30.30;99.20
17437;DHT22;8836;52.272;5.134;2022-07-21T10:04:57;29.80;99.20
17437;DHT22;8836;52.272;5.134;2022-07-21T10:07:27;29.80;99.30
17437;DHT22;8836;52.272;5.134;2022-07-21T10:09:54;29.60;99.50
17437;DHT22;8836;52.272;5.134;2022-07-21T10:12:24;29.50;99.50
17437;DHT22;8836;52.272;5.134;2022-07-21T10:14:52;29.60;99.50
17437;DHT22;8836;52.272;5.134;2022-07-21T10:17:21;29.60;99.60
17437;DHT22;8836;52.272;5.134;2022-07-21T10:20:02;29.70;99.70
17437;DHT22;8836;52.272;5.134;2022-07-21T10:22:44;29.70;99.70
17437;DHT22;8836;52.272;5.134;2022-07-21T10:25:24;29.70;99.60
17437;DHT22;8836;52.272;5.134;2022-07-21T10:28:13;29.60;99.60
17437;DHT22;8836;52.272;5.134;2022-07-21T10:30:44;29.70;99.60
17437;DHT22;8836;52.272;5.134;2022-07-21T10:33:12;29.60;99.70
17437;DHT22;8836;52.272;5.134;2022-07-21T10:35:43;29.50;99.60
17437;DHT22;8836;52.272;5.134;2022-07-21T10:38:26;29.60;99.60
17437;DHT22;8836;52.272;5.134;2022-07-21T10:40:55;29.50;99.60
17437;DHT22;8836;52.272;5.134;2022-07-21T10:43:45;29.50;99.70
17437;DHT22;8836;52.272;5.134;2022-07-21T10:46:37;29.50;99.60
17437;DHT22;8836;52.272;5.134;2022-07-21T10:49:06;29.50;99.60
17437;DHT22;8836;52.272;5.134;2022-07-21T10:51:38;29.50;99.80
17437;DHT22;8836;52.272;5.134;2022-07-21T10:54:21;29.50;99.80
17437;DHT22;8836;52.272;5.134;2022-07-21T10:57:24;29.40;99.80
17437;DHT22;8836;52.272;5.134;2022-07-21T11:00:20;29.40;99.80
17437;DHT22;8836;52.272;5.134;2022-07-21T11:02:52;29.50;99.80
17437;DHT22;8836;52.272;5.134;2022-07-21T11:05:22;29.50;99.80
17437;DHT22;8836;52.272;5.134;2022-07-21T11:08:12;29.50;99.70
17437;DHT22;8836;52.272;5.134;2022-07-21T11:10:42;29.40;99.70
17437;DHT22;8836;52.272;5.134;2022-07-21T11:13:11;29.30;99.70
17437;DHT22;8836;52.272;5.134;2022-07-21T11:15:46;29.30;99.80
17437;DHT22;8836;52.272;5.134;2022-07-21T11:18:24;29.30;99.80
17437;DHT22;8836;52.272;5.134;2022-07-21T11:21:10;29.30;99.90
17437;DHT22;8836;52.272;5.134;2022-07-21T11:23:45;29.30;99.90
17437;DHT22;8836;52.272;5.134;2022-07-21T11:26:14;29.30;99.90
17437;DHT22;8836;52.272;5.134;2022-07-21T11:28:43;29.40;99.90
17437;DHT22;8836;52.272;5.134;2022-07-21T11:31:17;29.40;99.90
17437;DHT22;8836;52.272;5.134;2022-07-21T11:33:48;29.50;99.90
17437;DHT22;8836;52.272;5.134;2022-07-21T11:36:26;29.50;99.80
17437;DHT22;8836;52.272;5.134;2022-07-21T11:39:01;29.60;99.80
17437;DHT22;8836;52.272;5.134;2022-07-21T11:41:31;29.60;99.70
17437;DHT22;8836;52.272;5.134;2022-07-21T11:43:59;29.60;99.70
17437;DHT22;8836;52.272;5.134;2022-07-21T11:46:26;29.60;99.70
17437;DHT22;8836;52.272;5.134;2022-07-21T11:49:04;29.60;99.70
17437;DHT22;8836;52.272;5.134;2022-07-21T11:51:32;29.70;99.60
17437;DHT22;8836;52.272;5.134;2022-07-21T11:54:01;29.60;99.60
17437;DHT22;8836;52.272;5.134;2022-07-21T11:56:36;29.70;99.60
17437;DHT22;8836;52.272;5.134;2022-07-21T11:59:11;29.70;99.60
17437;DHT22;8836;52.272;5.134;2022-07-21T12:01:52;29.70;99.70
17437;DHT22;8836;52.272;5.134;2022-07-21T12:04:35;29.60;99.60
17437;DHT22;8836;52.272;5.134;2022-07-21T12:07:06;29.60;99.70
17437;DHT22;8836;52.272;5.134;2022-07-21T12:09:40;29.60;99.60
17437;DHT22;8836;52.272;5.134;2022-07-21T12:12:08;29.60;99.70
17437;DHT22;8836;52.272;5.134;2022-07-21T12:14:47;29.60;99.60
17437;DHT22;8836;52.272;5.134;2022-07-21T12:17:32;29.70;99.70
17437;DHT22;8836;52.272;5.134;2022-07-21T12:20:01;29.70;99.60
17437;DHT22;8836;52.272;5.134;2022-07-21T12:22:37;29.60;99.70
17437;DHT22;8836;52.272;5.134;2022-07-21T12:25:07;29.70;99.70
17437;DHT22;8836;52.272;5.134;2022-07-21T12:27:35;29.60;99.70
17437;DHT22;8836;52.272;5.134;2022-07-21T12:30:05;29.60;99.70
17437;DHT22;8836;52.272;5.134;2022-07-21T12:32:39;29.60;99.70
17437;DHT22;8836;52.272;5.134;2022-07-21T12:35:26;29.60;99.70
17437;DHT22;8836;52.272;5.134;2022-07-21T12:37:55;29.60;99.70
17437;DHT22;8836;52.272;5.134;2022-07-21T12:40:26;29.60;99.70
17437;DHT22;8836;52.272;5.134;2022-07-21T12:43:10;29.60;99.70
17437;DHT22;8836;52.272;5.134;2022-07-21T12:45:54;29.70;99.70
17437;DHT22;8836;52.272;5.134;2022-07-21T12:48:24;29.60;99.90
17437;DHT22;8836;52.272;5.134;2022-07-21T12:51:07;29.60;99.90
17437;DHT22;8836;52.272;5.134;2022-07-21T12:53:41;29.60;99.80
17437;DHT22;8836;52.272;5.134;2022-07-21T12:56:13;29.60;99.80
17437;DHT22;8836;52.272;5.134;2022-07-21T12:58:42;29.60;99.80
17437;DHT22;8836;52.272;5.134;2022-07-21T13:01:10;29.60;99.90
17437;DHT22;8836;52.272;5.134;2022-07-21T13:03:37;29.60;99.80
17437;DHT22;8836;52.272;5.134;2022-07-21T13:06:05;29.50;99.80
17437;DHT22;8836;52.272;5.134;2022-07-21T13:08:33;29.50;99.80
17437;DHT22;8836;52.272;5.134;2022-07-21T13:11:00;29.50;99.80
17437;DHT22;8836;52.272;5.134;2022-07-21T13:13:29;29.60;99.80
17437;DHT22;8836;52.272;5.134;2022-07-21T13:15:56;30.10;99.90
17437;DHT22;8836;52.272;5.134;2022-07-21T13:18:23;29.60;99.80
17437;DHT22;8836;52.272;5.134;2022-07-21T13:20:51;29.60;99.80
17437;DHT22;8836;52.272;5.134;2022-07-21T13:23:19;29.60;99.90
17437;DHT22;8836;52.272;5.134;2022-07-21T13:25:47;30.10;99.90
17437;DHT22;8836;52.272;5.134;2022-07-21T13:28:14;29.60;99.90
17437;DHT22;8836;52.272;5.134;2022-07-21T13:30:44;29.50;99.90
17437;DHT22;8836;52.272;5.134;2022-07-21T13:33:11;29.60;99.90
17437;DHT22;8836;52.272;5.134;2022-07-21T13:35:39;29.60;99.90
17437;DHT22;8836;52.272;5.134;2022-07-21T13:38:06;29.60;99.90
17437;DHT22;8836;52.272;5.134;2022-07-21T13:40:33;29.60;99.90
17437;DHT22;8836;52.272;5.134;2022-07-21T13:43:00;29.60;99.90
17437;DHT22;8836;52.272;5.134;2022-07-21T13:45:27;29.60;99.90
17437;DHT22;8836;52.272;5.134;2022-07-21T13:47:55;29.60;99.90
17437;DHT22;8836;52.272;5.134;2022-07-21T13:50:22;29.60;99.90
17437;DHT22;8836;52.272;5.134;2022-07-21T13:52:49;29.60;99.90
17437;DHT22;8836;52.272;5.134;2022-07-21T13:55:16;29.60;99.90
17437;DHT22;8836;52.272;5.134;2022-07-21T13:57:43;29.60;99.90
17437;DHT22;8836;52.272;5.134;2022-07-21T14:00:11;29.60;99.90
17437;DHT22;8836;52.272;5.134;2022-07-21T14:02:38;29.60;99.90
17437;DHT22;8836;52.272;5.134;2022-07-21T14:05:08;29.50;99.90
17437;DHT22;8836;52.272;5.134;2022-07-21T14:07:35;29.50;99.90
17437;DHT22;8836;52.272;5.134;2022-07-21T14:10:02;29.50;99.90
17437;DHT22;8836;52.272;5.134;2022-07-21T14:12:30;29.50;99.90
17437;DHT22;8836;52.272;5.134;2022-07-21T14:14:57;29.50;99.90
17437;DHT22;8836;52.272;5.134;2022-07-21T14:17:24;29.40;99.90
17437;DHT22;8836;52.272;5.134;2022-07-21T14:19:51;29.70;99.90
17437;DHT22;8836;52.272;5.134;2022-07-21T14:22:19;29.10;99.90
17437;DHT22;8836;52.272;5.134;2022-07-21T14:24:47;28.90;99.90
17437;DHT22;8836;52.272;5.134;2022-07-21T14:27:31;29.20;99.90
17437;DHT22;8836;52.272;5.134;2022-07-21T14:29:59;28.90;99.90
17437;DHT22;8836;52.272;5.134;2022-07-21T14:32:26;30.30;99.90
17437;DHT22;8836;52.272;5.134;2022-07-21T14:34:54;29.00;99.90
17437;DHT22;8836;52.272;5.134;2022-07-21T14:37:22;29.00;99.90
17437;DHT22;8836;52.272;5.134;2022-07-21T14:39:49;29.00;99.90
17437;DHT22;8836;52.272;5.134;2022-07-21T14:42:17;29.00;99.90
17437;DHT22;8836;52.272;5.134;2022-07-21T14:44:44;29.00;99.90
17437;DHT22;8836;52.272;5.134;2022-07-21T14:47:12;28.80;99.90
17437;DHT22;8836;52.272;5.134;2022-07-21T14:49:39;28.50;99.90
17437;DHT22;8836;52.272;5.134;2022-07-21T14:52:06;28.40;99.90
17437;DHT22;8836;52.272;5.134;2022-07-21T14:54:36;28.40;99.90
17437;DHT22;8836;52.272;5.134;2022-07-21T14:57:03;28.30;99.90
17437;DHT22;8836;52.272;5.134;2022-07-21T14:59:30;28.00;99.90
17437;DHT22;8836;52.272;5.134;2022-07-21T15:01:58;27.40;99.90
17437;DHT22;8836;52.272;5.134;2022-07-21T15:04:25;27.20;99.90
17437;DHT22;8836;52.272;5.134;2022-07-21T15:06:52;27.00;99.90
17437;DHT22;8836;52.272;5.134;2022-07-21T15:09:19;27.00;99.90
17437;DHT22;8836;52.272;5.134;2022-07-21T15:11:47;27.00;99.90
17437;DHT22;8836;52.272;5.134;2022-07-21T15:14:14;26.90;99.90
17437;DHT22;8836;52.272;5.134;2022-07-21T15:16:41;27.50;99.90
17437;DHT22;8836;52.272;5.134;2022-07-21T15:19:08;27.10;99.90
17437;DHT22;8836;52.272;5.134;2022-07-21T15:21:36;26.90;99.90
17437;DHT22;8836;52.272;5.134;2022-07-21T15:24:03;26.50;99.90
17437;DHT22;8836;52.272;5.134;2022-07-21T15:26:30;26.20;99.90
17437;DHT22;8836;52.272;5.134;2022-07-21T15:28:58;26.00;99.90
17437;DHT22;8836;52.272;5.134;2022-07-21T15:31:25;25.60;99.90
17437;DHT22;8836;52.272;5.134;2022-07-21T15:33:56;25.30;99.90
17437;DHT22;8836;52.272;5.134;2022-07-21T15:36:22;25.20;99.90
17437;DHT22;8836;52.272;5.134;2022-07-21T15:38:49;25.10;99.90
17437;DHT22;8836;52.272;5.134;2022-07-21T15:41:17;24.80;99.90
17437;DHT22;8836;52.272;5.134;2022-07-21T15:43:44;24.50;99.90
17437;DHT22;8836;52.272;5.134;2022-07-21T15:46:12;24.30;99.90
17437;DHT22;8836;52.272;5.134;2022-07-21T15:48:39;24.20;99.90
17437;DHT22;8836;52.272;5.134;2022-07-21T15:51:06;23.70;99.90
17437;DHT22;8836;52.272;5.134;2022-07-21T15:53:34;23.60;99.90
17437;DHT22;8836;52.272;5.134;2022-07-21T15:56:01;23.40;99.90
17437;DHT22;8836;52.272;5.134;2022-07-21T15:58:28;23.30;99.90